Flight Track Log - Related Links

Times and Time Zones

All times are in EDT time to prevent confusion due to time zone crossing. See the UAL4528 flight status page for this flight to view local times or setup timezone preferences in your user account.

Time Position Orientation Groundspeed Altitude Reporting Facility
EDT Latitude Longitude Course Direction KTS MPH feet Rate Location/Type
Mon 04:22:56 PM 35.0167 -89.9667 239° Southwest 161 185 1,100  Level KMEM
Mon 04:23:44 PM 34.9833 -89.9833 202° Southwest 177 204 2,500 2,000 Climbing KMEM
Mon 04:24:44 PM 34.9667 -90.0500 253° West 249 287 4,700 2,350 Climbing KMEM
Mon 04:25:44 PM 34.9667 -90.1333 270° West 248 285 7,200 2,634 Climbing KMEM
Mon 04:26:00 PM 35.0669 -90.3274 247° West  Level FlightAware Approximate
Mon 04:26:06 PM 34.9614 -90.1747 261° West 256 295 8,300  Level Memphis Center
Mon 04:27:00 PM 35.0305 -90.4306 247° West  Level FlightAware Approximate
Mon 04:27:06 PM 34.9531 -90.2531 263° West 261 300 10,200  Level Memphis Center
Mon 04:28:00 PM 34.9921 -90.5324 239° Southwest  Level FlightAware Approximate
Mon 04:28:06 PM 34.9447 -90.3494 264° West 279 321 11,800  Level Memphis Center
Mon 04:29:06 PM 34.9322 -90.4608 262° West 316 364 13,100 1,500 Climbing Memphis Center
Mon 04:30:06 PM 34.9194 -90.5800 263° West 346 398 14,800 1,650 Climbing Memphis Center
Mon 04:31:06 PM 34.9067 -90.6964 262° West 356 410 16,400 1,450 Climbing Memphis Center
Mon 04:32:06 PM 34.8667 -90.8025 245° Southwest 350 403 17,700 1,150 Climbing Memphis Center
Mon 04:33:06 PM 34.7914 -90.8856 222° Southwest 358 412 18,700 1,000 Climbing Memphis Center
Mon 04:34:06 PM 34.7094 -90.9786 223° Southwest 358 412 19,700 1,000 Climbing Memphis Center
Mon 04:35:06 PM 34.6319 -91.0689 224° Southwest 380 437 20,700 1,000 Climbing Memphis Center
Mon 04:36:06 PM 34.5522 -91.1539 221° Southwest 387 445 21,700 1,000 Climbing Memphis Center
Mon 04:37:06 PM 34.4722 -91.2439 223° Southwest 392 451 22,700 1,000 Climbing Memphis Center
Mon 04:38:06 PM 34.3903 -91.3336 222° Southwest 397 457 23,700 1,000 Climbing Memphis Center
Mon 04:39:06 PM 34.3122 -91.4208 223° Southwest 392 451 24,700 1,100 Climbing Memphis Center
Mon 04:40:06 PM 34.2342 -91.5078 223° Southwest 392 451 25,900 1,200 Climbing Memphis Center
Mon 04:41:06 PM 34.1561 -91.5947 223° Southwest 391 450 27,100 1,200 Climbing Memphis Center
Mon 04:42:06 PM 34.0781 -91.6789 222° Southwest 381 438 28,300 1,000 Climbing Memphis Center
Mon 04:43:06 PM 34.0167 -91.7556 226° Southwest 372 428 29,100 800 Climbing Memphis Center
Mon 04:44:06 PM 33.9408 -91.8369 222° Southwest 364 419 29,900 800 Climbing Memphis Center
Mon 04:45:06 PM 33.8603 -91.9206 221° Southwest 370 426 30,700 667 Climbing Memphis Center
Mon 04:47:15 PM 33.6939 -92.1061 223° Southwest 377 434 32,000 413 Climbing Fort Worth Center
Mon 04:48:15 PM 33.6039 -92.1989 221° Southwest 382 440 32,000  Level Fort Worth Center
Mon 04:49:15 PM 33.5064 -92.2619 208° Southwest 390 449 32,000  Level Fort Worth Center
Mon 04:50:15 PM 33.3906 -92.2911 192° South 407 468 32,000  Level Fort Worth Center
Mon 04:51:15 PM 33.2772 -92.3225 193° South 412 474 32,000  Level Fort Worth Center
Mon 04:52:15 PM 33.1636 -92.3539 193° South 417 480 32,000  Level Fort Worth Center
Mon 04:53:15 PM 33.0500 -92.3825 192° South 422 486 32,000  Level Fort Worth Center
Mon 04:54:15 PM 32.9322 -92.4139 193° South 429 494 32,000  Level Fort Worth Center
Mon 04:55:15 PM 32.8231 -92.4447 193° South 429 494 32,000  Level Fort Worth Center
Mon 04:56:58 PM 32.6417 -92.4947 193° South 421 484 32,000  Level Houston Center
Mon 04:58:00 PM 32.5022 -92.5325 193° South 429 494 32,000  Level Houston Center
Mon 04:59:02 PM 32.3886 -92.5642 193° South 421 484 32,000  Level Houston Center
Mon 05:00:04 PM 32.2728 -92.5958 193° South 426 490 32,000  Level Houston Center
Mon 05:01:06 PM 32.1575 -92.6264 193° South 424 488 32,000  Level Houston Center
Mon 05:02:09 PM 32.0431 -92.6589 194° South 424 488 32,000  Level Houston Center
Mon 05:03:11 PM 31.9214 -92.7272 205° Southwest 405 466 32,000  Level Houston Center
Mon 05:04:13 PM 31.8344 -92.8125 220° Southwest 406 467 32,000  Level Houston Center
Mon 05:05:15 PM 31.7467 -92.8989 220° Southwest 411 473 32,000  Level Houston Center
Mon 05:06:17 PM 31.6600 -92.9817 219° Southwest 407 468 32,000  Level Houston Center
Mon 05:07:19 PM 31.5714 -93.0664 219° Southwest 413 475 32,000  Level Houston Center
Mon 05:08:21 PM 31.4664 -93.1672 219° Southwest 410 472 32,000  Level Houston Center
Mon 05:09:23 PM 31.3781 -93.2514 219° Southwest 410 472 32,000 -97 Level Houston Center
Mon 05:10:25 PM 31.2833 -93.3225 213° Southwest 412 474 31,800 -581 Descending Houston Center
Mon 05:11:27 PM 31.1642 -93.3244 181° South 431 496 30,800 -960 Descending Houston Center
Mon 05:12:30 PM 31.0425 -93.3017 171° South 441 507 29,800 -1,056 Descending Houston Center
Mon 05:13:32 PM 30.9003 -93.2775 172° South 437 503 28,600 -1,065 Descending Houston Center
Mon 05:14:34 PM 30.7856 -93.2725 178° South 423 487 27,600 -919 Descending Houston Center
Mon 05:15:36 PM 30.7039 -93.3486 219° Southwest 387 445 26,700 -968 Descending Houston Center
Mon 05:16:38 PM 30.6542 -93.4533 241° Southwest 374 430 25,600 -1,016 Descending Houston Center
Mon 05:17:40 PM 30.6028 -93.5583 240° Southwest 375 432 24,600 -1,016 Descending Houston Center
Mon 05:18:42 PM 30.5411 -93.6811 240° Southwest 369 425 23,500 -968 Descending Houston Center
Mon 05:19:44 PM 30.4964 -93.7706 240° Southwest 358 412 22,600 -1,065 Descending Houston Center
Mon 05:20:46 PM 30.4475 -93.8667 239° Southwest 348 400 21,300 -1,645 Descending Houston Center
Mon 05:21:48 PM 30.3911 -93.9789 240° Southwest 338 389 19,200 -1,920 Descending Houston Center
Mon 05:22:51 PM 30.3450 -94.0722 240° Southwest 334 384 17,300 -1,728 Descending Houston Center
Mon 05:23:53 PM 30.2978 -94.1644 239° Southwest 332 382 15,600 -1,722 Descending Houston Center
Mon 05:24:39 PM 30.2614 -94.2375 240° Southwest 326 375 14,200 -1,645 Descending Houston Center
Mon 05:24:55 PM 30.2522 -94.2556 240° Southwest 327 376 13,900 -1,672 Descending Houston Center
Mon 05:25:40 PM 30.2136 -94.3286 239° Southwest 326 375 12,500 -1,645 Descending Houston Center
Mon 05:25:57 PM 30.2064 -94.3464 245° Southwest 326 375 12,200 -532 Descending Houston Center
Mon 05:26:59 PM 30.1836 -94.4456 255° West 327 376 11,800 -757 Descending Houston Center
Mon 05:27:48 PM 30.1678 -94.5450 260° West 329 379 10,800 -1,027 Descending Houston Center
Mon 05:28:50 PM 30.1494 -94.6392 257° West 277 319 9,900 -780 Descending Houston Center
Mon 05:29:51 PM 30.1344 -94.7233 258° West 270 311 9,200 -590 Descending Houston Center
Mon 05:30:52 PM 30.1183 -94.8172 259° West 282 325 8,700 -474 Descending Houston Center
Mon 05:31:07 PM 30.1189 -94.8244 275° West 275 316 8,600 -462 Descending Houston Center
Mon 05:32:10 PM 30.1047 -94.9125 259° West 279 321 8,100 -720 Descending Houston Center
Mon 05:33:12 PM 30.1069 -95.0206 271° West 281 323 7,100 -850 Descending Houston Center
Mon 05:34:03 PM 30.1069 -95.0967 270° West 272 313 6,500 -589 Descending Houston Center
Mon 05:35:04 PM 30.1064 -95.1811 270° West 268 308 6,000 -256 Descending Houston Center
Mon 05:36:00 PM 30.1053 -95.2611 269° West 271 312 6,000  Level Houston Center
Mon 05:36:18 PM 30.1072 -95.2789 277° West 270 311 6,000  Level Houston Center
Mon 05:37:01 PM 30.1069 -95.3478 270° West 277 319 6,000 -97 Level Houston Center
Mon 05:37:20 PM 30.1081 -95.3661 274° West 274 315 5,900 -1,574 Descending Houston Center
Mon 05:38:02 PM 30.1069 -95.4394 269° West 265 305 4,400 -2,032 Descending Houston Center
Mon 05:38:22 PM 30.1072 -95.4656 271° West 261 300 3,800 -1,258 Descending Houston Center
Mon 05:39:04 PM 30.1053 -95.5144 267° West 227 261 3,100 -774 Descending Houston Center
Mon 05:39:24 PM 30.1067 -95.5392 274° West 245 282 3,000 -98 Descending Houston Center
Mon 05:40:05 PM 30.1056 -95.5869 268° West 223 257 3,000  Level Houston Center
Mon 05:40:26 PM 30.1067 -95.6119 273° West 235 270 3,000  Level Houston Center
Mon 05:41:07 PM 30.1064 -95.6667 270° West 230 265 3,000  Level Houston Center
Mon 05:41:29 PM 30.1075 -95.6856 274° West 232 267 3,000  Level Houston Center
Mon 05:42:08 PM 30.0911 -95.7311 247° West 225 259 3,000  Level Houston Center
Mon 05:42:31 PM 30.0775 -95.7339 190° South 230 265 3,000  Level Houston Center
Mon 05:43:09 PM 30.0392 -95.7372 184° South 177 204 3,000  Level Houston Center
Mon 05:43:33 PM 30.0192 -95.7367 179° South 182 209 3,000 98 Level Houston Center
Mon 05:44:10 PM 30.0106 -95.6994 105° East 168 193 3,100 97 Climbing Houston Center
Mon 05:44:35 PM 30.0081 -95.6825 100° East 172 198 3,100  Level Houston Center
Mon 05:45:06 PM 30.0042 -95.6519 98° East 164 189 3,100 -97 Level Houston Center
Mon 05:45:37 PM 30.0064 -95.6286 84° East 165 190 3,000  Descending Houston Center
Mon 05:46:07 PM 30.0058 -95.5989 91° East 172 198 3,100 97 Climbing Houston Center
Mon 05:46:39 PM 30.0064 -95.5736 89° East 169 194 3,100  Level Houston Center
Mon 05:47:14 PM 30.0069 -95.5408 89° East 163 188 3,100  Level Houston Center

Login

Don't have an account? Register now (free) for customized features, flight alerts, and more!